createdAt,value
2023-04-28T00:00:07.843Z,101421.63
2023-04-28T00:02:37.356Z,101426.75
2023-04-28T00:05:06.360Z,101420.84
2023-04-28T00:07:34.659Z,101427.06
2023-04-28T00:10:02.904Z,101424.31
2023-04-28T00:12:31.080Z,101426.09
2023-04-28T00:14:59.256Z,101421.75
2023-04-28T00:17:27.635Z,101424.66
2023-04-28T00:19:57.685Z,101420.00
2023-04-28T00:22:26.018Z,101419.94
2023-04-28T00:24:54.436Z,101413.13
2023-04-28T00:27:22.573Z,101409.84
2023-04-28T00:29:50.737Z,101411.50
2023-04-28T00:32:19.580Z,101417.69
2023-04-28T00:34:47.762Z,101412.44
2023-04-28T00:37:17.240Z,101412.56
2023-04-28T00:39:47.232Z,101414.25
2023-04-28T00:42:16.331Z,101409.94
2023-04-28T00:44:44.516Z,101406.47
2023-04-28T00:47:12.795Z,101411.75
2023-04-28T00:49:40.989Z,101402.19
2023-04-28T00:52:09.250Z,101396.06
2023-04-28T00:54:38.862Z,101403.91
2023-04-28T00:57:07.203Z,101413.41
2023-04-28T00:59:35.365Z,101415.28
2023-04-28T01:02:04.787Z,101401.47
2023-04-28T01:04:34.579Z,101399.56
2023-04-28T01:07:04.006Z,101399.59
2023-04-28T01:09:32.179Z,101404.00
2023-04-28T01:12:01.892Z,101401.59
2023-04-28T01:14:39.905Z,101409.34
2023-04-28T01:17:09.477Z,101407.69
2023-04-28T01:19:37.643Z,101402.41
2023-04-28T01:22:06.342Z,101396.47
2023-04-28T01:24:35.863Z,101398.84
2023-04-28T01:27:07.789Z,101401.47
2023-04-28T01:29:36.032Z,101398.91
2023-04-28T01:32:05.109Z,101399.84
2023-04-28T01:34:34.944Z,101392.91
2023-04-28T01:37:03.146Z,101396.34
2023-04-28T01:39:31.348Z,101395.53
2023-04-28T01:42:02.197Z,101389.41
2023-04-28T01:44:30.353Z,101386.84
2023-04-28T01:46:58.638Z,101385.94
2023-04-28T01:49:26.835Z,101386.81
2023-04-28T01:51:54.997Z,101391.16
2023-04-28T01:54:23.175Z,101388.66
2023-04-28T01:56:51.373Z,101386.81
2023-04-28T01:59:23.195Z,101387.78
2023-04-28T02:01:51.755Z,101382.69
2023-04-28T02:04:20.366Z,101378.28
2023-04-28T02:06:48.626Z,101378.31
2023-04-28T02:09:16.795Z,101379.25
2023-04-28T02:11:45.300Z,101384.38
2023-04-28T02:14:13.743Z,101369.53
2023-04-28T02:16:43.739Z,101373.91
2023-04-28T02:19:13.073Z,101379.19
2023-04-28T02:21:42.750Z,101372.13
2023-04-28T02:24:10.892Z,101372.13
2023-04-28T02:26:39.043Z,101365.19
2023-04-28T02:29:07.552Z,101370.41
2023-04-28T02:31:36.124Z,101370.50
2023-04-28T02:34:05.767Z,101376.56
2023-04-28T02:36:34.037Z,101365.28
2023-04-28T02:39:02.370Z,101370.44
2023-04-28T02:41:31.689Z,101365.19
2023-04-28T02:43:59.977Z,101367.84
2023-04-28T02:46:28.189Z,101364.34
2023-04-28T02:48:56.438Z,101370.41
2023-04-28T02:51:26.769Z,101359.09
2023-04-28T02:53:54.968Z,101373.88
2023-04-28T02:56:24.486Z,101358.25
2023-04-28T02:58:52.711Z,101355.63
2023-04-28T03:01:20.930Z,101356.59
2023-04-28T03:03:49.749Z,101346.94
2023-04-28T03:06:18.187Z,101348.75
2023-04-28T03:08:47.627Z,101354.88
2023-04-28T03:11:15.801Z,101348.75
2023-04-28T03:13:44.554Z,101340.94
2023-04-28T03:16:12.749Z,101341.88
2023-04-28T03:18:41.147Z,101334.84
2023-04-28T03:21:09.381Z,101342.63
2023-04-28T03:23:37.509Z,101336.63
2023-04-28T03:26:07.708Z,101347.91
2023-04-28T03:28:35.910Z,101336.66
2023-04-28T03:31:04.551Z,101341.78
2023-04-28T03:33:32.756Z,101329.66
2023-04-28T03:36:01.816Z,101334.94
2023-04-28T03:38:30.323Z,101335.78
2023-04-28T03:40:58.508Z,101319.13
2023-04-28T03:43:35.403Z,101336.66
2023-04-28T03:46:12.785Z,101330.66
2023-04-28T03:48:41.336Z,101333.22
2023-04-28T03:51:09.531Z,101334.88
2023-04-28T03:53:37.827Z,101329.63
2023-04-28T03:56:07.269Z,101334.00
2023-04-28T03:58:36.914Z,101330.47
2023-04-28T04:01:05.685Z,101329.63
2023-04-28T04:03:34.103Z,101332.22
2023-04-28T04:06:02.953Z,101327.72
2023-04-28T04:08:32.287Z,101334.81
2023-04-28T04:11:01.821Z,101325.91
2023-04-28T04:13:30.047Z,101323.38
2023-04-28T04:15:59.696Z,101322.56
2023-04-28T04:18:28.596Z,101323.31
2023-04-28T04:21:15.102Z,101318.06
2023-04-28T04:23:43.331Z,101317.91
2023-04-28T04:26:11.502Z,101316.81
2023-04-28T04:28:40.955Z,101322.91
2023-04-28T04:31:12.763Z,101313.41
2023-04-28T04:33:41.222Z,101316.81
2023-04-28T04:36:09.845Z,101311.47
2023-04-28T04:38:38.157Z,101313.31
2023-04-28T04:41:14.396Z,101311.41
2023-04-28T04:43:42.813Z,101304.59
2023-04-28T04:46:12.322Z,101303.91
2023-04-28T04:48:40.609Z,101310.81
2023-04-28T04:51:08.883Z,101295.91
2023-04-28T04:53:37.148Z,101300.34
2023-04-28T04:56:06.682Z,101298.06
2023-04-28T04:58:37.857Z,101295.78
2023-04-28T05:01:25.818Z,101298.84
2023-04-28T05:03:54.598Z,101301.00
2023-04-28T05:06:22.923Z,101285.78
2023-04-28T05:08:51.072Z,101283.59
2023-04-28T05:11:19.792Z,101280.59
2023-04-28T05:13:48.347Z,101287.38
2023-04-28T05:16:16.817Z,101282.28
2023-04-28T05:19:06.508Z,101283.25
2023-04-28T05:21:34.864Z,101281.06
2023-04-28T05:24:03.753Z,101278.28
2023-04-28T05:26:32.031Z,101274.34
2023-04-28T05:29:06.364Z,101270.13
2023-04-28T05:31:34.749Z,101277.03
2023-04-28T05:34:03.061Z,101271.97
2023-04-28T05:36:33.006Z,101266.63
2023-04-28T05:39:01.817Z,101269.44
2023-04-28T05:41:30.047Z,101261.84
2023-04-28T05:43:58.246Z,101264.22
2023-04-28T05:46:30.809Z,101262.03
2023-04-28T05:49:00.886Z,101257.66
2023-04-28T05:51:35.433Z,101259.09
2023-04-28T05:54:04.163Z,101259.63
2023-04-28T05:56:36.870Z,101262.63
2023-04-28T05:59:05.293Z,101269.53
2023-04-28T06:01:33.740Z,101266.56
2023-04-28T06:04:02.268Z,101266.00
2023-04-28T06:06:32.192Z,101258.56
2023-04-28T06:09:04.445Z,101260.13
2023-04-28T06:11:34.515Z,101248.59
2023-04-28T06:14:02.699Z,101243.16
2023-04-28T06:16:30.993Z,101242.41
2023-04-28T06:18:59.244Z,101231.00
2023-04-28T06:21:28.763Z,101229.94
2023-04-28T06:23:58.219Z,101228.22
2023-04-28T06:26:27.792Z,101223.66
2023-04-28T06:28:56.428Z,101214.28
2023-04-28T06:31:24.644Z,101208.25
2023-04-28T06:33:55.286Z,101205.00
2023-04-28T06:36:24.547Z,101213.22
2023-04-28T06:38:52.839Z,101203.59
2023-04-28T06:41:21.279Z,101195.31
2023-04-28T06:43:53.386Z,101192.53
2023-04-28T06:46:26.020Z,101188.16
2023-04-28T06:48:54.592Z,101192.66
2023-04-28T06:51:22.866Z,101194.31
2023-04-28T06:53:53.059Z,101195.09
2023-04-28T06:56:21.382Z,101190.69
2023-04-28T06:58:49.773Z,101185.38
2023-04-28T07:01:19.446Z,101178.72
2023-04-28T07:03:47.747Z,101183.06
2023-04-28T07:06:16.619Z,101186.31
2023-04-28T07:08:45.039Z,101190.44
2023-04-28T07:11:13.242Z,101195.94
2023-04-28T07:13:41.408Z,101187.00
2023-04-28T07:16:10.342Z,101191.78
2023-04-28T07:18:40.173Z,101193.53
2023-04-28T07:21:08.312Z,101186.16
2023-04-28T07:23:38.729Z,101187.97
2023-04-28T07:26:07.116Z,101182.47
2023-04-28T07:28:35.777Z,101184.34
2023-04-28T07:31:04.013Z,101181.19
2023-04-28T07:33:32.236Z,101183.25
2023-04-28T07:36:02.074Z,101183.41
2023-04-28T07:38:30.390Z,101174.06
2023-04-28T07:40:58.596Z,101176.94
2023-04-28T07:43:26.751Z,101168.00
2023-04-28T07:45:55.051Z,101175.59
2023-04-28T07:48:23.415Z,101176.81
2023-04-28T07:50:51.593Z,101170.19
2023-04-28T07:53:21.155Z,101168.81
2023-04-28T07:55:49.346Z,101164.38
2023-04-28T07:58:17.615Z,101167.75
2023-04-28T08:00:46.314Z,101167.53
2023-04-28T08:03:14.611Z,101158.66
2023-04-28T08:05:45.039Z,101166.47
2023-04-28T08:08:13.303Z,101150.38
2023-04-28T08:10:43.837Z,101160.66
2023-04-28T08:13:12.102Z,101150.97
2023-04-28T08:15:40.311Z,101146.09
2023-04-28T08:18:08.769Z,101158.53
2023-04-28T08:20:36.973Z,101156.56
2023-04-28T08:23:05.150Z,101152.72
2023-04-28T08:25:33.479Z,101155.72
2023-04-28T08:28:03.655Z,101144.72
2023-04-28T08:30:31.801Z,101141.00
2023-04-28T08:32:59.967Z,101135.59
2023-04-28T08:35:28.334Z,101134.81
2023-04-28T08:37:57.140Z,101126.53
2023-04-28T08:40:26.887Z,101133.53
2023-04-28T08:42:56.529Z,101125.28
2023-04-28T08:45:28.353Z,101123.41
2023-04-28T08:47:57.831Z,101118.94
2023-04-28T08:50:28.726Z,101109.97
2023-04-28T08:52:57.843Z,101115.81
2023-04-28T08:55:27.933Z,101112.75
2023-04-28T08:57:57.466Z,101120.44
2023-04-28T09:00:27.201Z,101105.66
2023-04-28T09:02:55.417Z,101110.66
2023-04-28T09:05:24.522Z,101089.75
2023-04-28T09:07:52.932Z,101091.13
2023-04-28T09:10:23.238Z,101081.53
2023-04-28T09:12:54.538Z,101073.81
2023-04-28T09:15:33.794Z,101084.44
2023-04-28T09:18:03.796Z,101076.28
2023-04-28T09:20:33.668Z,101075.13
2023-04-28T09:23:15.995Z,101056.56
2023-04-28T09:25:58.418Z,101057.81
2023-04-28T09:28:26.873Z,101054.38
2023-04-28T09:30:57.072Z,101051.63
2023-04-28T09:33:25.755Z,101045.78
2023-04-28T09:35:54.652Z,101038.19
2023-04-28T09:38:24.340Z,101046.44
2023-04-28T09:40:58.310Z,101034.63
2023-04-28T09:43:28.431Z,101042.97
2023-04-28T09:45:59.619Z,101037.28
2023-04-28T09:48:31.919Z,101023.41
2023-04-28T09:51:00.808Z,101018.94
2023-04-28T09:53:30.038Z,100995.81
2023-04-28T09:55:59.850Z,101007.94
2023-04-28T09:58:30.011Z,101009.63
2023-04-28T10:01:01.806Z,101007.69
2023-04-28T10:03:32.149Z,101001.13
2023-04-28T10:06:00.795Z,101000.31
2023-04-28T10:08:29.512Z,101001.28
2023-04-28T10:10:58.553Z,100993.88
2023-04-28T10:13:27.014Z,100997.09
2023-04-28T10:15:58.183Z,100990.63
2023-04-28T10:18:30.304Z,100982.38
2023-04-28T10:21:03.162Z,100977.16
2023-04-28T10:23:50.159Z,100972.91
2023-04-28T10:26:19.871Z,100960.75
2023-04-28T10:28:48.929Z,100960.25
2023-04-28T10:31:18.726Z,100966.16
2023-04-28T10:33:49.540Z,100959.34
2023-04-28T10:36:49.149Z,100957.22
2023-04-28T10:39:17.902Z,100949.41
2023-04-28T10:41:47.160Z,100936.06
2023-04-28T10:44:43.003Z,100944.56
2023-04-28T10:47:11.932Z,100940.38
2023-04-28T10:50:12.433Z,100931.31
2023-04-28T10:52:50.425Z,100930.59
2023-04-28T10:55:32.155Z,100930.59
2023-04-28T10:58:41.812Z,100912.72
2023-04-28T11:01:26.129Z,100905.84
2023-04-28T11:04:01.098Z,100900.16
2023-04-28T11:06:32.547Z,100895.09
2023-04-28T11:09:02.456Z,100897.09
2023-04-28T11:11:34.830Z,100895.97
2023-04-28T11:14:33.328Z,100891.09
2023-04-28T11:17:03.159Z,100891.00
2023-04-28T11:19:33.218Z,100884.06
2023-04-28T11:22:05.114Z,100879.09
2023-04-28T11:24:33.336Z,100883.53
2023-04-28T11:27:02.244Z,100889.78
2023-04-28T11:29:35.232Z,100881.44
2023-04-28T11:32:04.139Z,100881.03
2023-04-28T11:34:32.744Z,100883.22
2023-04-28T11:37:03.083Z,100885.66
2023-04-28T11:39:33.387Z,100880.91
2023-04-28T11:42:04.185Z,100878.75
2023-04-28T11:44:32.902Z,100871.91
2023-04-28T11:47:03.051Z,100862.09
2023-04-28T11:49:33.896Z,100859.19
2023-04-28T11:52:07.668Z,100858.69
2023-04-28T11:54:36.126Z,100841.44
2023-04-28T11:57:05.173Z,100846.66
2023-04-28T11:59:34.724Z,100851.97
2023-04-28T12:02:04.429Z,100860.13
2023-04-28T12:04:35.838Z,100858.75
2023-04-28T12:07:07.529Z,100850.00
2023-04-28T12:09:36.274Z,100844.84
2023-04-28T12:12:06.029Z,100836.22
2023-04-28T12:14:54.389Z,100842.03
2023-04-28T12:17:26.589Z,100838.63
2023-04-28T12:19:55.280Z,100826.13
2023-04-28T12:22:25.500Z,100835.03
2023-04-28T12:25:08.278Z,100835.53
2023-04-28T12:27:39.159Z,100832.03
2023-04-28T12:30:25.871Z,100831.00
2023-04-28T12:32:55.858Z,100818.56
2023-04-28T12:35:24.755Z,100829.94
2023-04-28T12:37:55.302Z,100828.38
2023-04-28T12:40:24.624Z,100830.00
2023-04-28T12:42:52.882Z,100823.09
2023-04-28T12:45:21.127Z,100821.09
2023-04-28T12:47:49.325Z,100815.28
2023-04-28T12:50:17.563Z,100814.53
2023-04-28T12:52:45.754Z,100819.59
2023-04-28T12:55:15.280Z,100809.41
2023-04-28T12:57:43.470Z,100809.78
2023-04-28T13:00:16.657Z,100805.91
2023-04-28T13:02:45.461Z,100806.06
2023-04-28T13:05:14.372Z,100805.00
2023-04-28T13:07:42.888Z,100797.28
2023-04-28T13:10:12.857Z,100786.97
2023-04-28T13:12:42.606Z,100793.25
2023-04-28T13:15:12.272Z,100792.34
2023-04-28T13:17:40.721Z,100791.72
2023-04-28T13:20:10.621Z,100782.84
2023-04-28T13:22:38.779Z,100775.16
2023-04-28T13:25:07.761Z,100772.56
2023-04-28T13:27:37.456Z,100776.06
2023-04-28T13:30:08.955Z,100772.78
2023-04-28T13:32:37.536Z,100767.75
2023-04-28T13:35:06.796Z,100763.16
2023-04-28T13:37:35.358Z,100775.69
2023-04-28T13:40:04.444Z,100759.09
2023-04-28T13:42:33.146Z,100759.31
2023-04-28T13:45:01.344Z,100758.56
2023-04-28T13:47:32.556Z,100756.66
2023-04-28T13:50:01.142Z,100762.16
2023-04-28T13:52:29.295Z,100752.63
2023-04-28T13:54:57.489Z,100755.59
2023-04-28T13:57:25.677Z,100742.84
2023-04-28T13:59:53.968Z,100747.41
2023-04-28T14:02:22.357Z,100750.16
2023-04-28T14:04:52.855Z,100748.25
2023-04-28T14:07:21.374Z,100735.50
2023-04-28T14:09:50.481Z,100731.56
2023-04-28T14:12:18.751Z,100723.50
2023-04-28T14:14:48.891Z,100716.09
2023-04-28T14:17:17.306Z,100724.56
2023-04-28T14:19:45.638Z,100730.31
2023-04-28T14:22:15.178Z,100721.72
2023-04-28T14:24:43.989Z,100726.59
2023-04-28T14:27:12.279Z,100732.91
2023-04-28T14:29:42.087Z,100736.69
2023-04-28T14:32:10.297Z,100728.47
2023-04-28T14:34:38.468Z,100732.25
2023-04-28T14:37:06.957Z,100718.31
2023-04-28T14:39:39.878Z,100720.00
2023-04-28T14:42:08.296Z,100718.09
2023-04-28T14:44:37.194Z,100706.00
2023-04-28T14:47:05.556Z,100713.19
2023-04-28T14:49:34.170Z,100707.84
2023-04-28T14:52:02.467Z,100701.81
2023-04-28T14:54:30.618Z,100700.78
2023-04-28T14:57:00.132Z,100698.75
2023-04-28T14:59:28.546Z,100697.16
2023-04-28T15:01:56.866Z,100686.53
2023-04-28T15:04:29.580Z,100686.78
2023-04-28T15:06:59.203Z,100680.31
2023-04-28T15:09:27.431Z,100684.22
2023-04-28T15:11:55.564Z,100684.25
2023-04-28T15:14:25.077Z,100684.88
2023-04-28T15:16:53.900Z,100680.63
2023-04-28T15:19:22.188Z,100680.22
2023-04-28T15:21:50.378Z,100681.13
2023-04-28T15:24:21.641Z,100695.50
2023-04-28T15:26:49.952Z,100695.25
2023-04-28T15:29:18.952Z,100688.72
2023-04-28T15:31:48.441Z,100694.06
2023-04-28T15:34:16.757Z,100684.41
2023-04-28T15:36:44.963Z,100686.34
2023-04-28T15:39:13.573Z,100674.94
2023-04-28T15:41:41.931Z,100669.81
2023-04-28T15:44:10.550Z,100675.28
2023-04-28T15:46:38.909Z,100675.47
2023-04-28T15:49:09.854Z,100678.78
2023-04-28T15:51:38.254Z,100675.06
2023-04-28T15:54:06.595Z,100679.22
2023-04-28T15:56:35.093Z,100670.47
2023-04-28T15:59:04.332Z,100677.03
2023-04-28T16:01:32.515Z,100675.09
2023-04-28T16:04:01.353Z,100672.69
2023-04-28T16:06:32.453Z,100672.81
2023-04-28T16:09:00.865Z,100681.53
2023-04-28T16:11:29.702Z,100678.50
2023-04-28T16:13:57.879Z,100673.38
2023-04-28T16:16:26.220Z,100676.25
2023-04-28T16:18:55.016Z,100671.53
2023-04-28T16:21:23.611Z,100667.22
2023-04-28T16:23:53.156Z,100672.59
2023-04-28T16:26:22.068Z,100680.88
2023-04-28T16:28:50.679Z,100680.16
2023-04-28T16:31:18.843Z,100685.53
2023-04-28T16:33:47.039Z,100683.59
2023-04-28T16:36:15.206Z,100679.97
2023-04-28T16:38:45.622Z,100685.03
2023-04-28T16:41:16.666Z,100685.53
2023-04-28T16:43:44.852Z,100683.97
2023-04-28T16:46:13.113Z,100683.88
2023-04-28T16:48:42.105Z,100680.00
2023-04-28T16:51:10.808Z,100676.41
2023-04-28T16:53:39.166Z,100686.03
2023-04-28T16:56:09.774Z,100686.53
2023-04-28T16:58:40.522Z,100676.78
2023-04-28T17:01:08.870Z,100678.50
2023-04-28T17:03:41.778Z,100679.47
2023-04-28T17:06:11.089Z,100688.69
2023-04-28T17:08:40.173Z,100684.69
2023-04-28T17:11:09.212Z,100679.44
2023-04-28T17:13:37.750Z,100677.97
2023-04-28T17:16:07.788Z,100678.84
2023-04-28T17:18:36.665Z,100683.78
2023-04-28T17:21:05.522Z,100675.63
2023-04-28T17:23:33.681Z,100678.16
2023-04-28T17:26:03.305Z,100678.03
2023-04-28T17:28:32.755Z,100672.34
2023-04-28T17:31:03.652Z,100669.22
2023-04-28T17:33:33.244Z,100670.72
2023-04-28T17:36:03.412Z,100675.19
2023-04-28T17:38:32.428Z,100669.94
2023-04-28T17:41:01.390Z,100667.44
2023-04-28T17:43:29.811Z,100668.56
2023-04-28T17:45:58.054Z,100665.38
2023-04-28T17:48:26.378Z,100662.94
2023-04-28T17:50:56.089Z,100664.16
2023-04-28T17:53:24.884Z,100654.66
2023-04-28T17:55:53.123Z,100668.22
2023-04-28T17:58:22.348Z,100665.44
2023-04-28T18:00:50.809Z,100666.00
2023-04-28T18:03:19.069Z,100660.69
2023-04-28T18:05:47.599Z,100668.31
2023-04-28T18:08:17.130Z,100663.31
2023-04-28T18:10:45.311Z,100661.69
2023-04-28T18:13:13.467Z,100665.03
2023-04-28T18:15:41.997Z,100664.09
2023-04-28T18:18:11.072Z,100665.81
2023-04-28T18:20:39.311Z,100663.91
2023-04-28T18:23:07.997Z,100662.25
2023-04-28T18:25:37.739Z,100661.66
2023-04-28T18:28:08.009Z,100657.34
2023-04-28T18:30:37.867Z,100653.53
2023-04-28T18:33:07.871Z,100654.78
2023-04-28T18:35:36.767Z,100648.84
2023-04-28T18:38:06.013Z,100654.41
2023-04-28T18:40:34.741Z,100649.09
2023-04-28T18:43:04.278Z,100647.38
2023-04-28T18:45:34.313Z,100648.63
2023-04-28T18:48:03.787Z,100654.09
2023-04-28T18:50:32.852Z,100654.94
2023-04-28T18:53:02.517Z,100651.09
2023-04-28T18:55:30.775Z,100648.91
2023-04-28T18:58:01.734Z,100652.94
2023-04-28T19:00:32.301Z,100653.03
2023-04-28T19:03:01.663Z,100652.19
2023-04-28T19:05:31.327Z,100651.97
2023-04-28T19:07:59.462Z,100654.94
2023-04-28T19:10:27.830Z,100654.66
2023-04-28T19:12:57.383Z,100655.16
2023-04-28T19:15:27.511Z,100652.72
2023-04-28T19:17:57.226Z,100651.66
2023-04-28T19:20:26.094Z,100654.00
2023-04-28T19:22:54.398Z,100651.41
2023-04-28T19:25:22.525Z,100650.13
2023-04-28T19:27:50.662Z,100639.59
2023-04-28T19:30:18.951Z,100648.00
2023-04-28T19:32:47.180Z,100634.47
2023-04-28T19:35:16.652Z,100635.44
2023-04-28T19:37:44.808Z,100625.53
2023-04-28T19:40:13.828Z,100627.34
2023-04-28T19:42:42.030Z,100622.81
2023-04-28T19:45:11.196Z,100619.63
2023-04-28T19:47:39.525Z,100620.78
2023-04-28T19:50:10.123Z,100624.41
2023-04-28T19:52:39.779Z,100624.72
2023-04-28T19:55:08.769Z,100619.19
2023-04-28T19:57:37.249Z,100622.19
2023-04-28T20:00:08.151Z,100625.81
2023-04-28T20:02:36.480Z,100626.53
2023-04-28T20:05:05.842Z,100624.00
2023-04-28T20:07:34.109Z,100624.13
2023-04-28T20:10:03.688Z,100622.63
2023-04-28T20:12:32.814Z,100640.75
2023-04-28T20:15:01.014Z,100631.53
2023-04-28T20:17:29.215Z,100636.22
2023-04-28T20:19:57.573Z,100621.84
2023-04-28T20:22:26.372Z,100631.28
2023-04-28T20:24:54.681Z,100625.19
2023-04-28T20:27:24.266Z,100624.00
2023-04-28T20:29:53.632Z,100620.47
2023-04-28T20:32:21.791Z,100626.22
2023-04-28T20:34:50.049Z,100622.59
2023-04-28T20:37:20.818Z,100631.75
2023-04-28T20:39:50.514Z,100618.16
2023-04-28T20:42:18.863Z,100624.44
2023-04-28T20:44:48.378Z,100612.66
2023-04-28T20:47:16.610Z,100624.28
2023-04-28T20:49:44.881Z,100613.03
2023-04-28T20:52:13.046Z,100612.19
2023-04-28T20:54:43.579Z,100619.31
2023-04-28T20:57:12.325Z,100607.50
2023-04-28T20:59:40.556Z,100610.28
2023-04-28T21:02:10.078Z,100603.06
2023-04-28T21:04:38.234Z,100604.00
2023-04-28T21:07:06.519Z,100596.47
2023-04-28T21:09:35.844Z,100596.25
2023-04-28T21:12:04.351Z,100597.13
2023-04-28T21:14:35.709Z,100598.72
2023-04-28T21:17:04.326Z,100595.94
2023-04-28T21:19:34.203Z,100580.97
2023-04-28T21:22:02.353Z,100585.31
2023-04-28T21:24:30.518Z,100583.28
2023-04-28T21:26:59.498Z,100572.53
2023-04-28T21:29:28.211Z,100579.13
2023-04-28T21:31:56.468Z,100567.47
2023-04-28T21:34:24.740Z,100565.69
2023-04-28T21:36:54.341Z,100563.97
2023-04-28T21:39:22.788Z,100566.91
2023-04-28T21:41:50.959Z,100558.63
2023-04-28T21:44:19.561Z,100560.97
2023-04-28T21:46:47.767Z,100558.16
2023-04-28T21:49:16.241Z,100554.66
2023-04-28T21:51:45.851Z,100549.00
2023-04-28T21:54:15.429Z,100553.47
2023-04-28T21:56:43.697Z,100554.59
2023-04-28T21:59:12.314Z,100542.66
2023-04-28T22:01:41.618Z,100546.09
2023-04-28T22:04:10.030Z,100543.75
2023-04-28T22:06:38.537Z,100539.38
2023-04-28T22:09:07.289Z,100534.56
2023-04-28T22:11:36.872Z,100539.06
2023-04-28T22:14:05.715Z,100528.88
2023-04-28T22:16:33.933Z,100529.63
2023-04-28T22:19:02.726Z,100538.56
2023-04-28T22:21:32.158Z,100530.00
2023-04-28T22:24:00.358Z,100533.56
2023-04-28T22:26:31.377Z,100532.06
2023-04-28T22:29:02.122Z,100533.09
2023-04-28T22:31:30.427Z,100525.44
2023-04-28T22:33:58.634Z,100520.53
2023-04-28T22:36:27.674Z,100523.81
2023-04-28T22:38:55.864Z,100527.66
2023-04-28T22:41:24.733Z,100523.34
2023-04-28T22:43:53.228Z,100518.22
2023-04-28T22:46:23.062Z,100516.84
2023-04-28T22:48:51.860Z,100515.88
2023-04-28T22:51:20.328Z,100510.34
2023-04-28T22:53:48.671Z,100510.81
2023-04-28T22:56:16.927Z,100510.34
2023-04-28T22:58:45.120Z,100511.66
2023-04-28T23:01:13.346Z,100508.00
2023-04-28T23:03:43.032Z,100500.50
2023-04-28T23:06:11.462Z,100505.25
2023-04-28T23:08:39.697Z,100506.75
2023-04-28T23:11:07.919Z,100501.25
2023-04-28T23:13:36.149Z,100504.84
2023-04-28T23:16:04.496Z,100495.06
2023-04-28T23:18:33.884Z,100492.72
2023-04-28T23:21:03.355Z,100493.38
2023-04-28T23:23:32.586Z,100488.38
2023-04-28T23:26:01.464Z,100477.44
2023-04-28T23:28:29.702Z,100476.47
2023-04-28T23:30:57.911Z,100480.41
2023-04-28T23:33:26.427Z,100482.53
2023-04-28T23:35:54.947Z,100474.44
2023-04-28T23:38:25.520Z,100474.78
2023-04-28T23:40:53.689Z,100471.88
2023-04-28T23:43:22.209Z,100475.53
2023-04-28T23:45:50.576Z,100466.56
2023-04-28T23:48:18.833Z,100468.06
2023-04-28T23:50:47.344Z,100467.75
2023-04-28T23:53:15.536Z,100461.06
2023-04-28T23:55:45.371Z,100461.06
2023-04-28T23:58:13.555Z,100464.66
